Dingle, Idaho
Current Conditions -  °F | °C
As of 10:15 AM on Sunday 21 Dec 2014 (Local Time) from KAFO Reporting Station
Light Rain Light Rain  
Wind Chill: 27°   Ceiling: 1600
Heat Index: 34°   Visibility: 7mi
Dew Point: 32°   Wind: 8mph
Humidity: 93%   Direction: 170°S
Pressure: 29.77"   Gusts: NA
Location:  42.22°N, 111.27°W
Report Text: KAFO 211715Z AUTO 17007KT 7SM -RA BKN016 OVC026 01/00 A2977 RMK AO2
Loading
Personal Weather Stations






























Interactive Weather Map New forecast layout! Learn more

10-Day Weather Forecast

Advertisements
Track Severe Weather on mobile